createdAt,value
2017-10-29T00:00:38.691Z,11.69
2017-10-29T00:01:38.676Z,11.76
2017-10-29T00:02:38.670Z,11.76
2017-10-29T00:03:38.656Z,11.75
2017-10-29T00:04:38.654Z,11.83
2017-10-29T00:05:38.642Z,11.8
2017-10-29T00:06:38.311Z,11.8
2017-10-29T00:07:38.302Z,11.85
2017-10-29T00:08:38.614Z,11.82
2017-10-29T00:09:38.607Z,11.73
2017-10-29T00:10:38.596Z,11.78
2017-10-29T00:11:38.592Z,11.88
2017-10-29T00:12:38.577Z,11.8
2017-10-29T00:13:38.571Z,11.78
2017-10-29T00:14:38.246Z,11.83
2017-10-29T00:15:38.558Z,11.98
2017-10-29T00:16:38.556Z,11.95
2017-10-29T00:17:38.789Z,11.99
2017-10-29T00:18:38.532Z,11.99
2017-10-29T00:19:38.197Z,11.99
2017-10-29T00:20:38.515Z,11.99
2017-10-29T00:21:38.508Z,12.04
2017-10-29T00:22:38.496Z,12.02
2017-10-29T00:23:38.490Z,12.02
2017-10-29T00:24:38.487Z,12.13
2017-10-29T00:25:38.148Z,12.07
2017-10-29T00:26:38.464Z,12.05
2017-10-29T00:27:38.459Z,12.07
2017-10-29T00:28:38.121Z,12.12
2017-10-29T00:29:38.436Z,12.13
2017-10-29T00:30:38.110Z,12.1
2017-10-29T00:31:38.421Z,12.12
2017-10-29T00:32:38.407Z,12.1
2017-10-29T00:33:38.407Z,12.09
2017-10-29T00:34:38.394Z,12.14
2017-10-29T00:35:38.380Z,12.17
2017-10-29T00:36:38.378Z,12.17
2017-10-29T00:37:38.369Z,12.13
2017-10-29T00:38:37.716Z,12.16
2017-10-29T00:39:38.352Z,12.14
2017-10-29T00:40:38.021Z,12.21
2017-10-29T00:41:38.345Z,12.17
2017-10-29T00:42:38.006Z,12.16
2017-10-29T00:43:38.326Z,12.17
2017-10-29T00:44:38.306Z,12.31
2017-10-29T00:45:38.299Z,12.27
2017-10-29T00:46:37.971Z,12.29
2017-10-29T00:47:37.964Z,12.29
2017-10-29T00:48:38.528Z,12.31
2017-10-29T00:49:37.952Z,12.31
2017-10-29T00:50:37.615Z,12.27
2017-10-29T00:51:38.246Z,12.37
2017-10-29T00:52:38.244Z,12.35
2017-10-29T00:53:38.231Z,12.29
2017-10-29T00:54:38.231Z,12.29
2017-10-29T00:55:38.222Z,12.23
2017-10-29T00:56:38.211Z,12.29
2017-10-29T00:57:38.200Z,12.29
2017-10-29T00:58:37.871Z,12.32
2017-10-29T00:59:38.187Z,12.32
2017-10-29T01:00:38.196Z,12.29
2017-10-29T01:01:37.847Z,12.32
2017-10-29T01:02:37.835Z,12.32
2017-10-29T01:03:38.151Z,12.32
2017-10-29T01:04:37.821Z,12.38
2017-10-29T01:05:38.135Z,12.39
2017-10-29T01:06:37.810Z,12.39
2017-10-29T01:07:37.803Z,12.45
2017-10-29T01:08:38.110Z,12.38
2017-10-29T01:09:38.099Z,12.42
2017-10-29T01:10:38.096Z,12.49
2017-10-29T01:11:38.086Z,12.47
2017-10-29T01:12:37.754Z,12.45
2017-10-29T01:13:37.748Z,12.46
2017-10-29T01:14:38.063Z,12.49
2017-10-29T01:15:38.051Z,12.46
2017-10-29T01:16:38.044Z,12.5
2017-10-29T01:17:38.037Z,12.41
2017-10-29T01:18:37.705Z,12.49
2017-10-29T01:19:38.022Z,12.47
2017-10-29T01:20:38.013Z,12.46
2017-10-29T01:21:38.000Z,12.42
2017-10-29T01:22:37.996Z,12.47
2017-10-29T01:23:37.667Z,12.42
2017-10-29T01:24:37.982Z,12.49
2017-10-29T01:25:37.975Z,12.52
2017-10-29T01:26:37.971Z,12.53
2017-10-29T01:27:37.990Z,12.57
2017-10-29T01:28:37.949Z,12.6
2017-10-29T01:29:37.944Z,12.59
2017-10-29T01:30:37.610Z,12.53
2017-10-29T01:31:37.932Z,12.62
2017-10-29T01:32:37.917Z,12.52
2017-10-29T01:33:37.907Z,12.57
2017-10-29T01:34:37.899Z,12.52
2017-10-29T01:35:37.566Z,12.52
2017-10-29T01:36:37.560Z,12.49
2017-10-29T01:37:37.880Z,12.5
2017-10-29T01:38:37.221Z,12.54
2017-10-29T01:39:37.858Z,12.59
2017-10-29T01:40:37.851Z,12.57
2017-10-29T01:41:37.844Z,12.52
2017-10-29T01:42:37.847Z,12.5
2017-10-29T01:43:37.824Z,12.57
2017-10-29T01:44:37.818Z,12.53
2017-10-29T01:45:37.490Z,12.52
2017-10-29T01:46:37.804Z,12.5
2017-10-29T01:47:37.790Z,12.46
2017-10-29T01:48:37.822Z,12.45
2017-10-29T01:49:37.782Z,12.46
2017-10-29T01:50:37.775Z,12.49
2017-10-29T01:51:37.767Z,12.47
2017-10-29T01:52:37.757Z,12.47
2017-10-29T01:53:37.428Z,12.46
2017-10-29T01:54:37.412Z,12.45
2017-10-29T01:55:37.728Z,12.42
2017-10-29T01:56:37.719Z,12.46
2017-10-29T01:57:37.725Z,12.47
2017-10-29T01:58:37.699Z,12.49
2017-10-29T01:59:37.692Z,12.42
2017-10-29T02:00:37.691Z,12.45
2017-10-29T02:01:37.700Z,12.47
2017-10-29T02:02:37.681Z,12.47
2017-10-29T02:03:37.351Z,12.46
2017-10-29T02:04:37.658Z,12.47
2017-10-29T02:05:37.651Z,12.45
2017-10-29T02:06:37.637Z,12.41
2017-10-29T02:07:37.631Z,12.46
2017-10-29T02:08:37.620Z,12.47
2017-10-29T02:09:37.615Z,12.42
2017-10-29T02:10:37.618Z,12.45
2017-10-29T02:11:37.602Z,12.46
2017-10-29T02:12:37.586Z,12.45
2017-10-29T02:13:37.595Z,12.47
2017-10-29T02:14:37.571Z,12.47
2017-10-29T02:15:36.921Z,12.47
2017-10-29T02:16:37.556Z,12.42
2017-10-29T02:17:37.546Z,12.47
2017-10-29T02:18:37.554Z,12.45
2017-10-29T02:19:37.532Z,12.46
2017-10-29T02:20:37.532Z,12.49
2017-10-29T02:21:37.516Z,12.46
2017-10-29T02:22:37.508Z,12.49
2017-10-29T02:23:37.501Z,12.46
2017-10-29T02:24:37.491Z,12.45
2017-10-29T02:25:37.481Z,12.45
2017-10-29T02:26:37.481Z,12.37
2017-10-29T02:27:37.469Z,12.49
2017-10-29T02:28:37.462Z,12.52
2017-10-29T02:29:37.447Z,12.34
2017-10-29T02:30:37.451Z,12.45
2017-10-29T02:31:37.433Z,12.46
2017-10-29T02:32:37.450Z,12.42
2017-10-29T02:33:37.418Z,12.32
2017-10-29T02:34:37.411Z,12.45
2017-10-29T02:35:37.405Z,12.32
2017-10-29T02:36:37.408Z,12.34
2017-10-29T02:37:37.066Z,12.32
2017-10-29T02:38:37.378Z,12.34
2017-10-29T02:39:37.053Z,12.23
2017-10-29T02:40:37.360Z,12.27
2017-10-29T02:41:37.355Z,12.32
2017-10-29T02:42:37.341Z,12.23
2017-10-29T02:43:37.014Z,12.31
2017-10-29T02:44:37.011Z,12.29
2017-10-29T02:45:37.320Z,12.28
2017-10-29T02:46:37.310Z,12.23
2017-10-29T02:47:37.302Z,12.19
2017-10-29T02:48:37.296Z,12.13
2017-10-29T02:49:37.287Z,12.13
2017-10-29T02:50:37.303Z,12.19
2017-10-29T02:51:37.277Z,12.2
2017-10-29T02:52:37.261Z,12.24
2017-10-29T02:53:36.931Z,12.2
2017-10-29T02:54:37.241Z,12.1
2017-10-29T02:55:36.920Z,12.07
2017-10-29T02:56:37.242Z,12.07
2017-10-29T02:57:37.215Z,12.02
2017-10-29T02:58:37.213Z,12.09
2017-10-29T02:59:37.208Z,12.02
2017-10-29T03:00:37.193Z,12.02
2017-10-29T03:01:37.199Z,11.96
2017-10-29T03:02:37.175Z,11.94
2017-10-29T03:03:37.212Z,11.91
2017-10-29T03:04:37.160Z,11.85
2017-10-29T03:05:37.153Z,11.88
2017-10-29T03:06:37.178Z,11.79
2017-10-29T03:07:36.488Z,11.79
2017-10-29T03:08:36.802Z,11.67
2017-10-29T03:09:37.122Z,11.67
2017-10-29T03:10:37.115Z,11.51
2017-10-29T03:11:37.104Z,11.51
2017-10-29T03:12:37.097Z,11.49
2017-10-29T03:13:37.082Z,11.42
2017-10-29T03:14:36.429Z,11.32
2017-10-29T03:15:37.064Z,11.19
2017-10-29T03:16:37.059Z,11.39
2017-10-29T03:17:37.052Z,11.24
2017-10-29T03:18:36.749Z,11.28
2017-10-29T03:19:36.710Z,11.28
2017-10-29T03:20:36.380Z,11.21
2017-10-29T03:21:37.012Z,11.25
2017-10-29T03:22:36.682Z,11.09
2017-10-29T03:23:36.351Z,11.11
2017-10-29T03:24:37.241Z,11.11
2017-10-29T03:25:36.667Z,11.07
2017-10-29T03:26:36.970Z,10.91
2017-10-29T03:27:36.965Z,10.97
2017-10-29T03:28:36.626Z,10.91
2017-10-29T03:29:36.945Z,10.89
2017-10-29T03:30:36.963Z,10.88
2017-10-29T03:31:36.927Z,10.88
2017-10-29T03:32:36.949Z,10.88
2017-10-29T03:33:36.907Z,10.96
2017-10-29T03:34:36.897Z,10.92
2017-10-29T03:35:36.896Z,10.89
2017-10-29T03:36:36.882Z,10.86
2017-10-29T03:37:36.869Z,10.89
2017-10-29T03:38:36.862Z,10.89
2017-10-29T03:39:36.857Z,10.94
2017-10-29T03:40:36.845Z,10.97
2017-10-29T03:41:36.833Z,10.91
2017-10-29T03:42:36.824Z,10.91
2017-10-29T03:43:36.816Z,10.92
2017-10-29T03:44:36.805Z,11.03
2017-10-29T03:45:36.796Z,10.94
2017-10-29T03:46:36.789Z,11
2017-10-29T03:47:36.779Z,10.84
2017-10-29T03:48:36.778Z,10.92
2017-10-29T03:49:36.761Z,10.89
2017-10-29T03:50:36.754Z,10.91
2017-10-29T03:51:36.748Z,10.82
2017-10-29T03:52:36.409Z,10.78
2017-10-29T03:53:36.725Z,10.78
2017-10-29T03:54:36.393Z,10.79
2017-10-29T03:55:36.645Z,10.71
2017-10-29T03:56:36.698Z,10.81
2017-10-29T03:57:36.689Z,10.61
2017-10-29T03:58:36.692Z,10.66
2017-10-29T03:59:36.669Z,10.64
2017-10-29T04:00:36.673Z,10.67
2017-10-29T04:01:36.327Z,10.63
2017-10-29T04:02:36.644Z,10.56
2017-10-29T04:03:36.636Z,10.51
2017-10-29T04:04:36.634Z,10.51
2017-10-29T04:05:36.618Z,10.41
2017-10-29T04:06:36.617Z,10.44
2017-10-29T04:07:36.602Z,10.4
2017-10-29T04:08:36.267Z,10.3
2017-10-29T04:09:36.253Z,10.32
2017-10-29T04:10:36.249Z,10.18
2017-10-29T04:11:36.560Z,10.12
2017-10-29T04:12:36.552Z,9.99
2017-10-29T04:13:36.556Z,9.96
2017-10-29T04:14:36.539Z,9.79
2017-10-29T04:15:36.538Z,9.72
2017-10-29T04:16:36.509Z,9.6
2017-10-29T04:17:36.520Z,9.46
2017-10-29T04:18:36.498Z,9.42
2017-10-29T04:19:36.484Z,9.26
2017-10-29T04:20:36.481Z,9.14
2017-10-29T04:21:36.465Z,9.15
2017-10-29T04:22:36.460Z,9.1
2017-10-29T04:23:36.452Z,9.02
2017-10-29T04:24:36.442Z,9.01
2017-10-29T04:25:36.102Z,8.96
2017-10-29T04:26:36.671Z,8.87
2017-10-29T04:27:36.410Z,8.89
2017-10-29T04:28:36.073Z,8.81
2017-10-29T04:29:36.387Z,8.91
2017-10-29T04:30:36.375Z,8.79
2017-10-29T04:31:36.043Z,8.74
2017-10-29T04:32:36.034Z,8.76
2017-10-29T04:33:36.353Z,8.8
2017-10-29T04:34:36.344Z,8.77
2017-10-29T04:35:36.329Z,8.73
2017-10-29T04:36:36.352Z,8.7
2017-10-29T04:37:36.305Z,8.79
2017-10-29T04:38:35.973Z,8.79
2017-10-29T04:39:36.297Z,8.7
2017-10-29T04:40:36.279Z,8.66
2017-10-29T04:41:36.269Z,8.7
2017-10-29T04:42:36.260Z,8.56
2017-10-29T04:43:36.251Z,8.59
2017-10-29T04:44:36.243Z,8.66
2017-10-29T04:45:36.231Z,8.59
2017-10-29T04:46:36.214Z,8.63
2017-10-29T04:47:36.207Z,8.61
2017-10-29T04:48:36.208Z,8.61
2017-10-29T04:49:36.185Z,8.63
2017-10-29T04:50:35.851Z,8.55
2017-10-29T04:51:36.165Z,8.52
2017-10-29T04:52:36.157Z,8.5
2017-10-29T04:53:36.146Z,8.45
2017-10-29T04:54:36.131Z,8.5
2017-10-29T04:55:35.801Z,8.47
2017-10-29T04:56:36.119Z,8.43
2017-10-29T04:57:36.100Z,8.48
2017-10-29T04:58:36.090Z,8.52
2017-10-29T04:59:36.081Z,8.5
2017-10-29T05:00:36.075Z,8.44
2017-10-29T05:01:35.741Z,8.44
2017-10-29T05:02:36.053Z,8.41
2017-10-29T05:03:35.721Z,8.33
2017-10-29T05:04:36.051Z,8.29
2017-10-29T05:05:36.023Z,8.26
2017-10-29T05:06:35.690Z,8.19
2017-10-29T05:07:36.001Z,8.16
2017-10-29T05:08:36.000Z,8.11
2017-10-29T05:09:35.983Z,8.01
2017-10-29T05:10:35.978Z,8
2017-10-29T05:11:35.962Z,7.93
2017-10-29T05:12:35.945Z,7.87
2017-10-29T05:13:35.944Z,7.82
2017-10-29T05:14:35.931Z,7.79
2017-10-29T05:15:35.600Z,7.85
2017-10-29T05:16:35.912Z,7.79
2017-10-29T05:17:35.604Z,7.74
2017-10-29T05:18:35.562Z,7.68
2017-10-29T05:19:35.871Z,7.69
2017-10-29T05:20:35.865Z,7.67
2017-10-29T05:21:35.851Z,7.68
2017-10-29T05:22:35.518Z,7.69
2017-10-29T05:23:35.833Z,7.68
2017-10-29T05:24:35.496Z,7.72
2017-10-29T05:25:35.816Z,7.72
2017-10-29T05:26:35.796Z,7.72
2017-10-29T05:27:35.463Z,7.72
2017-10-29T05:28:35.452Z,7.87
2017-10-29T05:29:35.767Z,7.82
2017-10-29T05:30:35.760Z,7.8
2017-10-29T05:31:35.751Z,7.79
2017-10-29T05:32:35.732Z,7.82
2017-10-29T05:33:35.728Z,7.79
2017-10-29T05:34:35.713Z,7.8
2017-10-29T05:35:35.699Z,7.79
2017-10-29T05:36:35.690Z,7.82
2017-10-29T05:37:35.684Z,7.8
2017-10-29T05:38:35.348Z,7.89
2017-10-29T05:39:35.662Z,7.9
2017-10-29T05:40:35.646Z,7.95
2017-10-29T05:41:35.312Z,8.02
2017-10-29T05:42:35.627Z,8.04
2017-10-29T05:43:35.613Z,8.12
2017-10-29T05:44:35.605Z,8.1
2017-10-29T05:45:35.617Z,8.2
2017-10-29T05:46:35.585Z,8.23
2017-10-29T05:47:35.568Z,8.33
2017-10-29T05:48:35.560Z,8.29
2017-10-29T05:49:35.225Z,8.3
2017-10-29T05:50:35.537Z,8.38
2017-10-29T05:51:35.523Z,8.37
2017-10-29T05:52:35.514Z,8.38
2017-10-29T05:53:35.507Z,8.47
2017-10-29T05:54:35.492Z,8.47
2017-10-29T05:55:35.489Z,8.47
2017-10-29T05:56:35.474Z,8.52
2017-10-29T05:57:35.464Z,8.59
2017-10-29T05:58:35.453Z,8.61
2017-10-29T05:59:35.446Z,8.7
2017-10-29T06:00:35.678Z,8.58
2017-10-29T06:01:35.423Z,8.59
2017-10-29T06:02:35.419Z,8.73
2017-10-29T06:03:35.076Z,8.62
2017-10-29T06:04:35.389Z,8.66
2017-10-29T06:05:35.378Z,8.68
2017-10-29T06:06:35.045Z,8.71
2017-10-29T06:07:35.360Z,8.83
2017-10-29T06:08:35.343Z,8.8
2017-10-29T06:09:35.012Z,8.86
2017-10-29T06:10:35.330Z,8.86
2017-10-29T06:11:34.989Z,8.95
2017-10-29T06:12:35.309Z,9.05
2017-10-29T06:13:35.295Z,9.05
2017-10-29T06:14:35.289Z,9.11
2017-10-29T06:15:35.272Z,9.11
2017-10-29T06:16:35.269Z,9.1
2017-10-29T06:17:35.252Z,9.2
2017-10-29T06:18:35.244Z,9.2
2017-10-29T06:19:35.237Z,9.13
2017-10-29T06:20:35.225Z,9.2
2017-10-29T06:21:35.210Z,9.17
2017-10-29T06:22:35.204Z,9.14
2017-10-29T06:23:35.193Z,9.05
2017-10-29T06:24:34.859Z,9.05
2017-10-29T06:25:35.208Z,9.05
2017-10-29T06:26:35.166Z,9.01
2017-10-29T06:27:35.153Z,9.02
2017-10-29T06:28:35.137Z,8.98
2017-10-29T06:29:35.133Z,8.92
2017-10-29T06:30:35.120Z,8.89
2017-10-29T06:31:35.362Z,8.89
2017-10-29T06:32:35.098Z,8.92
2017-10-29T06:33:35.090Z,8.86
2017-10-29T06:34:34.760Z,8.91
2017-10-29T06:35:34.748Z,8.91
2017-10-29T06:36:34.736Z,8.94
2017-10-29T06:37:35.052Z,8.89
2017-10-29T06:38:35.039Z,8.86
2017-10-29T06:39:35.030Z,8.89
2017-10-29T06:40:35.017Z,8.87
2017-10-29T06:41:35.017Z,8.98
2017-10-29T06:42:35.006Z,8.96
2017-10-29T06:43:34.987Z,8.99
2017-10-29T06:44:34.980Z,8.98
2017-10-29T06:45:34.645Z,9.02
2017-10-29T06:46:34.965Z,9.02
2017-10-29T06:47:34.948Z,9.01
2017-10-29T06:48:34.934Z,9.04
2017-10-29T06:49:34.929Z,8.96
2017-10-29T06:50:34.914Z,9.01
2017-10-29T06:51:34.907Z,8.98
2017-10-29T06:52:34.894Z,9.01
2017-10-29T06:53:34.892Z,9.08
2017-10-29T06:54:34.876Z,9.08
2017-10-29T06:55:34.865Z,9.02
2017-10-29T06:56:34.860Z,9.02
2017-10-29T06:57:34.847Z,9.05
2017-10-29T06:58:34.837Z,9.02
2017-10-29T06:59:34.505Z,8.94
2017-10-29T07:00:34.816Z,8.99
2017-10-29T07:01:34.485Z,8.95
2017-10-29T07:02:35.055Z,8.95
2017-10-29T07:03:34.783Z,8.87
2017-10-29T07:04:34.774Z,8.92
2017-10-29T07:05:34.763Z,8.84
2017-10-29T07:06:34.760Z,8.86
2017-10-29T07:07:34.420Z,8.83
2017-10-29T07:08:34.734Z,8.77
2017-10-29T07:09:34.724Z,8.8
2017-10-29T07:10:34.390Z,8.74
2017-10-29T07:11:34.704Z,8.8
2017-10-29T07:12:34.373Z,8.8
2017-10-29T07:13:34.683Z,8.79
2017-10-29T07:14:34.675Z,8.84
2017-10-29T07:15:34.671Z,8.81
2017-10-29T07:16:34.335Z,8.87
2017-10-29T07:17:34.646Z,8.8
2017-10-29T07:18:34.310Z,8.91
2017-10-29T07:19:34.627Z,8.98
2017-10-29T07:20:34.611Z,8.96
2017-10-29T07:21:34.285Z,8.94
2017-10-29T07:22:33.948Z,8.96
2017-10-29T07:23:34.257Z,9.01
2017-10-29T07:24:34.575Z,9.11
2017-10-29T07:25:34.237Z,9.17
2017-10-29T07:26:34.556Z,9.13
2017-10-29T07:27:34.544Z,9.18
2017-10-29T07:28:34.539Z,9.23
2017-10-29T07:29:34.199Z,9.15
2017-10-29T07:30:34.192Z,9.28
2017-10-29T07:31:34.503Z,9.33
2017-10-29T07:32:34.495Z,9.32
2017-10-29T07:33:34.410Z,9.32
2017-10-29T07:34:34.472Z,9.38
2017-10-29T07:35:34.466Z,9.43
2017-10-29T07:36:34.130Z,9.5
2017-10-29T07:37:34.444Z,9.53
2017-10-29T07:38:34.114Z,9.48
2017-10-29T07:39:34.099Z,9.48
2017-10-29T07:40:34.417Z,9.56
2017-10-29T07:41:34.405Z,9.68
2017-10-29T07:42:34.397Z,9.64
2017-10-29T07:43:34.381Z,9.56
2017-10-29T07:44:34.420Z,9.74
2017-10-29T07:45:34.044Z,9.61
2017-10-29T07:46:34.364Z,9.75
2017-10-29T07:47:34.040Z,9.74
2017-10-29T07:48:34.346Z,9.74
2017-10-29T07:49:34.327Z,9.68
2017-10-29T07:50:34.315Z,9.78
2017-10-29T07:51:33.983Z,9.87
2017-10-29T07:52:33.977Z,9.86
2017-10-29T07:53:33.965Z,9.96
2017-10-29T07:54:34.284Z,9.93
2017-10-29T07:55:34.275Z,10.02
2017-10-29T07:56:33.935Z,9.96
2017-10-29T07:57:34.257Z,9.96
2017-10-29T07:58:34.243Z,9.96
2017-10-29T07:59:34.227Z,10.01
2017-10-29T08:00:33.898Z,9.83
2017-10-29T08:01:34.219Z,9.84
2017-10-29T08:02:34.204Z,9.86
2017-10-29T08:03:34.193Z,9.87
2017-10-29T08:04:34.181Z,9.75
2017-10-29T08:05:34.172Z,9.84
2017-10-29T08:06:34.166Z,9.72
2017-10-29T08:07:33.831Z,9.66
2017-10-29T08:08:33.829Z,9.64
2017-10-29T08:09:33.820Z,9.65
2017-10-29T08:10:34.127Z,9.56
2017-10-29T08:11:33.801Z,9.57
2017-10-29T08:12:34.109Z,9.47
2017-10-29T08:13:33.453Z,9.4
2017-10-29T08:14:33.766Z,9.42
2017-10-29T08:15:34.080Z,9.35
2017-10-29T08:16:33.747Z,9.31
2017-10-29T08:17:33.741Z,9.17
2017-10-29T08:18:33.731Z,9.15
2017-10-29T08:19:33.720Z,9.11
2017-10-29T08:20:33.706Z,9.04
2017-10-29T08:21:34.023Z,8.94
2017-10-29T08:22:33.689Z,8.91
2017-10-29T08:23:34.002Z,8.86
2017-10-29T08:24:33.998Z,8.94
2017-10-29T08:25:33.982Z,8.94
2017-10-29T08:26:33.986Z,8.92
2017-10-29T08:27:33.964Z,8.91
2017-10-29T08:28:33.953Z,8.87
2017-10-29T08:29:33.940Z,8.86
2017-10-29T08:30:33.936Z,8.99
2017-10-29T08:31:33.925Z,8.84
2017-10-29T08:32:33.951Z,8.86
2017-10-29T08:33:33.903Z,8.89
2017-10-29T08:34:33.890Z,8.86
2017-10-29T08:35:33.888Z,8.79
2017-10-29T08:36:33.874Z,8.83
2017-10-29T08:37:33.874Z,8.84
2017-10-29T08:38:33.854Z,8.83
2017-10-29T08:39:33.849Z,8.81
2017-10-29T08:40:33.186Z,8.76
2017-10-29T08:41:33.825Z,8.74
2017-10-29T08:42:33.811Z,8.81
2017-10-29T08:43:33.802Z,8.65
2017-10-29T08:44:33.799Z,8.74
2017-10-29T08:45:33.782Z,8.74
2017-10-29T08:46:33.470Z,8.77
2017-10-29T08:47:33.441Z,8.92
2017-10-29T08:48:33.754Z,8.89
2017-10-29T08:49:33.745Z,8.99
2017-10-29T08:50:33.740Z,9.05
2017-10-29T08:51:33.725Z,9.08
2017-10-29T08:52:33.734Z,9.04
2017-10-29T08:53:33.707Z,9.1
2017-10-29T08:54:33.373Z,9.17
2017-10-29T08:55:33.693Z,9.23
2017-10-29T08:56:33.683Z,9.21
2017-10-29T08:57:33.350Z,9.21
2017-10-29T08:58:33.334Z,9.18
2017-10-29T08:59:33.655Z,9.18
2017-10-29T09:00:33.633Z,9.18
2017-10-29T09:01:33.305Z,9.18
2017-10-29T09:02:33.629Z,9.08
2017-10-29T09:03:33.285Z,9.13
2017-10-29T09:04:33.597Z,9.18
2017-10-29T09:05:33.584Z,9.18
2017-10-29T09:06:33.584Z,9.24
2017-10-29T09:07:33.821Z,9.11
2017-10-29T09:08:33.559Z,9.17
2017-10-29T09:09:33.556Z,9.15
2017-10-29T09:10:33.543Z,9.13
2017-10-29T09:11:33.550Z,9.14
2017-10-29T09:12:33.530Z,9.05
2017-10-29T09:13:33.512Z,9.04
2017-10-29T09:14:33.500Z,9.01
2017-10-29T09:15:33.498Z,9.01
2017-10-29T09:16:33.482Z,9.04
2017-10-29T09:17:33.155Z,8.94
2017-10-29T09:18:33.469Z,8.96
2017-10-29T09:19:33.456Z,8.96
2017-10-29T09:20:33.443Z,8.86
2017-10-29T09:21:33.446Z,9.01
2017-10-29T09:22:33.434Z,9.01
2017-10-29T09:23:33.090Z,9.04
2017-10-29T09:24:33.091Z,8.99
2017-10-29T09:25:33.390Z,9.11
2017-10-29T09:26:33.076Z,9.05
2017-10-29T09:27:33.386Z,9.11
2017-10-29T09:28:33.361Z,9.18
2017-10-29T09:29:33.032Z,9.28
2017-10-29T09:30:33.343Z,9.36
2017-10-29T09:31:33.335Z,9.38
2017-10-29T09:32:33.329Z,9.42
2017-10-29T09:33:33.314Z,9.57
2017-10-29T09:34:33.304Z,9.66
2017-10-29T09:35:33.301Z,9.84
2017-10-29T09:36:33.288Z,9.79
2017-10-29T09:37:33.282Z,9.9
2017-10-29T09:38:33.272Z,9.91
2017-10-29T09:39:33.257Z,9.78
2017-10-29T09:40:33.252Z,9.69
2017-10-29T09:41:33.243Z,9.68
2017-10-29T09:42:32.907Z,9.66
2017-10-29T09:43:33.230Z,9.66
2017-10-29T09:44:33.214Z,9.65
2017-10-29T09:45:33.203Z,9.74
2017-10-29T09:46:33.206Z,9.68
2017-10-29T09:47:33.185Z,9.79
2017-10-29T09:48:32.532Z,9.89
2017-10-29T09:49:33.175Z,9.99
2017-10-29T09:50:32.837Z,10.05
2017-10-29T09:51:33.183Z,10.08
2017-10-29T09:52:32.817Z,10.07
2017-10-29T09:53:33.143Z,10.11
2017-10-29T09:54:33.126Z,10.08
2017-10-29T09:55:33.121Z,10.05
2017-10-29T09:56:33.109Z,10.11
2017-10-29T09:57:33.095Z,10.14
2017-10-29T09:58:33.087Z,10.27
2017-10-29T09:59:33.079Z,10.26
2017-10-29T10:00:33.072Z,10.3
2017-10-29T10:01:33.079Z,10.3
2017-10-29T10:02:33.055Z,10.33
2017-10-29T10:03:32.730Z,10.36
2017-10-29T10:04:33.036Z,10.47
2017-10-29T10:05:32.713Z,10.18
2017-10-29T10:06:33.019Z,10.02
2017-10-29T10:07:32.687Z,9.71
2017-10-29T10:08:32.999Z,9.46
2017-10-29T10:09:33.016Z,9.29
2017-10-29T10:10:32.981Z,9.13
2017-10-29T10:11:32.657Z,8.96
2017-10-29T10:12:32.645Z,8.84
2017-10-29T10:13:32.963Z,8.89
2017-10-29T10:14:32.953Z,8.99
2017-10-29T10:15:32.939Z,8.96
2017-10-29T10:16:32.609Z,8.84
2017-10-29T10:17:32.920Z,8.74
2017-10-29T10:18:32.593Z,8.84
2017-10-29T10:19:32.583Z,8.77
2017-10-29T10:20:32.899Z,8.81
2017-10-29T10:21:32.896Z,8.79
2017-10-29T10:22:32.881Z,8.76
2017-10-29T10:23:32.875Z,8.89
2017-10-29T10:24:32.867Z,8.92
2017-10-29T10:25:32.851Z,8.86
2017-10-29T10:26:32.838Z,8.86
2017-10-29T10:27:32.829Z,8.83
2017-10-29T10:28:32.821Z,8.89
2017-10-29T10:29:32.806Z,8.94
2017-10-29T10:30:32.805Z,8.95
2017-10-29T10:31:32.798Z,8.96
2017-10-29T10:32:32.455Z,8.99
2017-10-29T10:33:32.784Z,8.99
2017-10-29T10:34:32.772Z,9.05
2017-10-29T10:35:32.106Z,9.1
2017-10-29T10:36:32.421Z,9.21
2017-10-29T10:37:32.412Z,9.24
2017-10-29T10:38:32.723Z,9.21
2017-10-29T10:39:32.719Z,9.2
2017-10-29T10:40:32.706Z,9.23
2017-10-29T10:41:32.380Z,9.33
2017-10-29T10:42:32.684Z,9.38
2017-10-29T10:43:32.694Z,9.53
2017-10-29T10:44:32.673Z,9.46
2017-10-29T10:45:32.664Z,9.54
2017-10-29T10:46:32.653Z,9.68
2017-10-29T10:47:32.657Z,9.69
2017-10-29T10:48:32.628Z,9.84
2017-10-29T10:49:32.621Z,9.97
2017-10-29T10:50:32.626Z,9.99
2017-10-29T10:51:32.606Z,10.11
2017-10-29T10:52:32.319Z,10.09
2017-10-29T10:53:32.591Z,10.18
2017-10-29T10:54:32.584Z,10.32
2017-10-29T10:55:32.588Z,10.45
2017-10-29T10:56:32.246Z,10.44
2017-10-29T10:57:32.566Z,10.52
2017-10-29T10:58:32.551Z,10.52
2017-10-29T10:59:32.540Z,10.63
2017-10-29T11:00:32.206Z,10.76
2017-10-29T11:01:32.520Z,10.76
2017-10-29T11:02:32.516Z,10.82
2017-10-29T11:03:32.527Z,10.89
2017-10-29T11:04:32.500Z,10.99
2017-10-29T11:05:32.496Z,10.96
2017-10-29T11:06:32.161Z,11.15
2017-10-29T11:07:32.476Z,11.11
2017-10-29T11:08:32.466Z,11.06
2017-10-29T11:09:32.136Z,11.09
2017-10-29T11:10:32.447Z,11.03
2017-10-29T11:11:32.444Z,10.96
2017-10-29T11:12:32.443Z,10.92
2017-10-29T11:13:32.429Z,10.88
2017-10-29T11:14:32.426Z,10.94
2017-10-29T11:15:32.414Z,10.92
2017-10-29T11:16:32.079Z,10.88
2017-10-29T11:17:32.403Z,10.85
2017-10-29T11:18:32.384Z,10.74
2017-10-29T11:19:32.059Z,10.71
2017-10-29T11:20:32.370Z,10.67
2017-10-29T11:21:32.361Z,10.53
2017-10-29T11:22:32.033Z,10.47
2017-10-29T11:23:32.348Z,10.41
2017-10-29T11:24:32.340Z,10.36
2017-10-29T11:25:32.328Z,10.36
2017-10-29T11:26:32.324Z,10.3
2017-10-29T11:27:32.320Z,10.32
2017-10-29T11:28:32.302Z,10.18
2017-10-29T11:29:32.300Z,10.09
2017-10-29T11:30:31.967Z,9.96
2017-10-29T11:31:32.310Z,9.86
2017-10-29T11:32:32.267Z,9.68
2017-10-29T11:33:32.262Z,9.5
2017-10-29T11:34:31.929Z,9.35
2017-10-29T11:35:31.922Z,9.18
2017-10-29T11:36:31.910Z,9.13
2017-10-29T11:37:32.226Z,9.08
2017-10-29T11:38:32.222Z,8.94
2017-10-29T11:39:32.206Z,8.71
2017-10-29T11:40:32.195Z,8.71
2017-10-29T11:41:31.891Z,8.62
2017-10-29T11:42:32.183Z,8.59
2017-10-29T11:43:32.516Z,8.68
2017-10-29T11:44:32.163Z,8.56
2017-10-29T11:45:31.830Z,8.61
2017-10-29T11:46:31.821Z,8.7
2017-10-29T11:47:32.128Z,8.53
2017-10-29T11:48:32.127Z,8.63
2017-10-29T11:49:31.790Z,8.65
2017-10-29T11:50:32.109Z,8.61
2017-10-29T11:51:32.100Z,8.73
2017-10-29T11:52:31.760Z,8.62
2017-10-29T11:53:32.078Z,8.77
2017-10-29T11:54:32.063Z,8.77
2017-10-29T11:55:31.731Z,8.8
2017-10-29T11:56:32.052Z,8.73
2017-10-29T11:57:32.035Z,8.55
2017-10-29T11:58:31.707Z,8.59
2017-10-29T11:59:31.693Z,8.66
2017-10-29T12:00:32.008Z,8.7
2017-10-29T12:01:32.000Z,8.61
2017-10-29T12:02:31.986Z,8.44
2017-10-29T12:03:31.337Z,8.44
2017-10-29T12:04:31.966Z,8.44
2017-10-29T12:05:31.958Z,8.4
2017-10-29T12:06:31.945Z,8.36
2017-10-29T12:07:31.936Z,8.33
2017-10-29T12:08:31.929Z,8.26
2017-10-29T12:09:31.932Z,8.34
2017-10-29T12:10:31.906Z,8.3
2017-10-29T12:11:31.900Z,8.26
2017-10-29T12:12:31.572Z,8.38
2017-10-29T12:13:31.875Z,8.34
2017-10-29T12:14:31.868Z,8.29
2017-10-29T12:15:31.856Z,8.33
2017-10-29T12:16:31.850Z,8.33
2017-10-29T12:17:31.841Z,8.22
2017-10-29T12:18:31.828Z,8.33
2017-10-29T12:19:31.816Z,8.33
2017-10-29T12:20:31.163Z,8.4
2017-10-29T12:21:31.798Z,8.4
2017-10-29T12:22:31.466Z,8.4
2017-10-29T12:23:31.782Z,8.3
2017-10-29T12:24:31.770Z,8.33
2017-10-29T12:25:31.767Z,8.12
2017-10-29T12:26:31.751Z,8.11
2017-10-29T12:27:31.417Z,8.11
2017-10-29T12:28:31.734Z,8.16
2017-10-29T12:29:31.722Z,8.12
2017-10-29T12:30:31.709Z,8.18
2017-10-29T12:31:31.698Z,8.12
2017-10-29T12:32:31.689Z,8.15
2017-10-29T12:33:31.677Z,8.15
2017-10-29T12:34:31.673Z,8.11
2017-10-29T12:35:31.658Z,7.98
2017-10-29T12:36:31.327Z,8.02
2017-10-29T12:37:31.318Z,8.07
2017-10-29T12:38:31.633Z,8.08
2017-10-29T12:39:31.299Z,8.04
2017-10-29T12:40:31.607Z,8.05
2017-10-29T12:41:31.277Z,8.02
2017-10-29T12:42:31.266Z,8
2017-10-29T12:43:31.580Z,7.89
2017-10-29T12:44:31.569Z,7.86
2017-10-29T12:45:31.567Z,7.79
2017-10-29T12:46:31.547Z,7.77
2017-10-29T12:47:30.900Z,7.69
2017-10-29T12:48:31.529Z,7.61
2017-10-29T12:49:31.523Z,7.67
2017-10-29T12:50:31.515Z,7.6
2017-10-29T12:51:31.503Z,7.52
2017-10-29T12:52:31.497Z,7.43
2017-10-29T12:53:31.474Z,7.34
2017-10-29T12:54:31.471Z,7.31
2017-10-29T12:55:31.135Z,7.21
2017-10-29T12:56:31.441Z,7.17
2017-10-29T12:57:31.435Z,7.1
2017-10-29T12:58:31.421Z,6.92
2017-10-29T12:59:31.418Z,6.84
2017-10-29T13:00:31.397Z,6.77
2017-10-29T13:01:31.392Z,6.59
2017-10-29T13:02:31.381Z,6.41
2017-10-29T13:03:31.367Z,6.37
2017-10-29T13:04:31.037Z,6.34
2017-10-29T13:05:31.378Z,6.31
2017-10-29T13:06:31.014Z,6.37
2017-10-29T13:07:31.326Z,6.31
2017-10-29T13:08:30.992Z,6.41
2017-10-29T13:09:31.309Z,6.54
2017-10-29T13:10:31.290Z,6.49